createdAt,value
2024-02-19T00:00:57.698Z,1.92
2024-02-19T00:03:27.478Z,1.90
2024-02-19T00:05:57.839Z,1.80
2024-02-19T00:08:27.564Z,1.80
2024-02-19T00:10:57.311Z,2.00
2024-02-19T00:13:27.039Z,2.38
2024-02-19T00:15:57.142Z,2.30
2024-02-19T00:18:27.018Z,2.50
2024-02-19T00:20:56.729Z,2.65
2024-02-19T00:23:26.531Z,2.80
2024-02-19T00:25:56.362Z,2.67
2024-02-19T00:28:26.514Z,2.83
2024-02-19T00:30:57.158Z,2.75
2024-02-19T00:33:27.326Z,2.97
2024-02-19T00:35:57.045Z,2.90
2024-02-19T00:38:27.638Z,3.20
2024-02-19T00:40:57.285Z,2.88
2024-02-19T00:43:27.015Z,3.08
2024-02-19T00:45:56.695Z,3.13
2024-02-19T00:48:26.522Z,3.13
2024-02-19T00:50:56.218Z,3.20
2024-02-19T00:53:25.838Z,3.20
2024-02-19T00:55:56.295Z,3.10
2024-02-19T00:58:26.036Z,3.17
2024-02-19T01:00:58.147Z,2.97
2024-02-19T01:03:29.405Z,3.20
2024-02-19T01:05:59.177Z,3.28
2024-02-19T01:08:28.815Z,3.08
2024-02-19T01:10:58.657Z,3.70
2024-02-19T01:13:28.322Z,3.58
2024-02-19T01:15:58.041Z,3.05
2024-02-19T01:18:27.901Z,3.22
2024-02-19T01:20:58.256Z,3.42
2024-02-19T01:23:27.955Z,3.30
2024-02-19T01:25:58.367Z,3.70
2024-02-19T01:28:28.198Z,3.58
2024-02-19T01:30:58.565Z,3.53
2024-02-19T01:33:28.708Z,3.53
2024-02-19T01:35:58.613Z,3.33
2024-02-19T01:38:28.711Z,3.42
2024-02-19T01:40:58.395Z,3.00
2024-02-19T01:43:28.722Z,2.92
2024-02-19T01:45:58.480Z,2.97
2024-02-19T01:48:28.204Z,3.13
2024-02-19T01:50:57.932Z,2.90
2024-02-19T01:53:29.162Z,2.90
2024-02-19T01:55:58.882Z,2.92
2024-02-19T01:58:29.199Z,2.40
2024-02-19T02:01:01.702Z,2.50
2024-02-19T02:03:31.455Z,2.45
2024-02-19T02:06:02.597Z,2.58
2024-02-19T02:08:32.299Z,2.55
2024-02-19T02:11:02.083Z,2.40
2024-02-19T02:13:31.777Z,2.28
2024-02-19T02:16:03.088Z,2.30
2024-02-19T02:18:33.413Z,2.30
2024-02-19T02:21:03.191Z,2.47
2024-02-19T02:23:33.232Z,2.30
2024-02-19T02:26:02.968Z,2.38
2024-02-19T02:28:32.744Z,2.67
2024-02-19T02:31:02.481Z,2.40
2024-02-19T02:33:32.587Z,2.33
2024-02-19T02:36:02.632Z,2.65
2024-02-19T02:38:32.235Z,2.78
2024-02-19T02:41:05.569Z,2.72
2024-02-19T02:43:35.289Z,2.80
2024-02-19T02:46:05.178Z,2.92
2024-02-19T02:51:17.636Z,2.67
2024-02-19T02:53:47.348Z,2.80
2024-02-19T02:56:23.668Z,3.10
2024-02-19T02:58:54.164Z,3.13
2024-02-19T03:01:33.198Z,3.08
2024-02-19T03:04:03.015Z,3.00
2024-02-19T03:06:32.724Z,3.20
2024-02-19T03:09:02.352Z,2.95
2024-02-19T03:11:33.656Z,3.28
2024-02-19T03:14:03.625Z,2.83
2024-02-19T03:16:33.266Z,3.00
2024-02-19T03:19:03.018Z,2.80
2024-02-19T03:21:32.747Z,3.10
2024-02-19T03:24:02.401Z,3.38
2024-02-19T03:26:38.025Z,3.47
2024-02-19T03:29:15.959Z,3.30
2024-02-19T03:31:46.721Z,3.20
2024-02-19T03:34:16.454Z,3.60
2024-02-19T03:36:51.350Z,3.20
2024-02-19T03:39:21.891Z,3.22
2024-02-19T03:41:52.006Z,3.70
2024-02-19T03:44:21.641Z,3.55
2024-02-19T03:46:51.406Z,3.63
2024-02-19T03:49:21.196Z,3.97
2024-02-19T03:51:50.869Z,4.00
2024-02-19T03:54:21.324Z,4.10
2024-02-19T03:56:53.768Z,4.13
2024-02-19T03:59:25.196Z,3.63
2024-02-19T04:01:55.026Z,4.15
2024-02-19T04:04:25.075Z,3.90
2024-02-19T04:06:55.055Z,4.22
2024-02-19T04:09:24.979Z,4.20
2024-02-19T04:11:54.678Z,4.90
2024-02-19T04:14:24.328Z,4.80
2024-02-19T04:16:53.976Z,4.80
2024-02-19T04:19:23.652Z,4.88
2024-02-19T04:21:53.481Z,5.18
2024-02-19T04:24:23.264Z,5.18
2024-02-19T04:26:52.908Z,6.32
2024-02-19T04:29:23.025Z,6.07
2024-02-19T04:31:55.549Z,6.00
2024-02-19T04:34:25.347Z,4.95
2024-02-19T04:36:55.627Z,4.82
2024-02-19T04:39:25.414Z,5.13
2024-02-19T04:41:55.052Z,5.28
2024-02-19T04:44:33.719Z,4.75
2024-02-19T04:47:03.550Z,4.80
2024-02-19T04:49:34.265Z,4.80
2024-02-19T04:52:04.592Z,5.80
2024-02-19T04:54:34.775Z,5.20
2024-02-19T04:57:04.571Z,5.00
2024-02-19T04:59:34.268Z,5.22
2024-02-19T05:02:04.025Z,4.78
2024-02-19T05:04:33.825Z,4.57
2024-02-19T05:07:03.578Z,4.63
2024-02-19T05:09:33.619Z,4.43
2024-02-19T05:12:03.546Z,4.38
2024-02-19T05:14:33.176Z,4.10
2024-02-19T05:17:03.233Z,4.45
2024-02-19T05:19:33.030Z,4.35
2024-02-19T05:22:02.789Z,3.83
2024-02-19T05:24:32.455Z,4.03
2024-02-19T05:27:02.148Z,4.38
2024-02-19T05:29:32.174Z,3.42
2024-02-19T05:32:02.425Z,3.58
2024-02-19T05:34:32.572Z,3.45
2024-02-19T05:37:02.309Z,3.20
2024-02-19T05:39:32.098Z,3.42
2024-02-19T05:42:01.683Z,2.92
2024-02-19T05:44:32.306Z,3.05
2024-02-19T05:47:01.898Z,2.78
2024-02-19T05:49:31.688Z,3.00
2024-02-19T05:52:01.562Z,2.80
2024-02-19T05:54:31.377Z,3.10
2024-02-19T05:57:01.020Z,2.33
2024-02-19T05:59:30.635Z,2.65
2024-02-19T06:02:00.606Z,2.50
2024-02-19T06:04:30.762Z,2.58
2024-02-19T06:07:02.016Z,2.58
2024-02-19T06:09:31.824Z,2.53
2024-02-19T06:12:01.578Z,2.67
2024-02-19T06:14:31.314Z,2.80
2024-02-19T06:17:01.142Z,2.78
2024-02-19T06:19:30.823Z,3.15
2024-02-19T06:22:00.492Z,2.53
2024-02-19T06:24:30.215Z,2.50
2024-02-19T06:26:59.841Z,2.70
2024-02-19T06:29:29.496Z,2.72
2024-02-19T06:31:59.165Z,2.67
2024-02-19T06:34:29.481Z,2.60
2024-02-19T06:36:59.245Z,2.50
2024-02-19T06:39:28.894Z,2.60
2024-02-19T06:41:58.523Z,2.50
2024-02-19T06:44:28.161Z,2.45
2024-02-19T06:46:57.774Z,2.70
2024-02-19T06:49:27.513Z,2.67
2024-02-19T06:51:57.286Z,2.72
2024-02-19T06:54:29.404Z,2.60
2024-02-19T06:57:00.916Z,2.33
2024-02-19T06:59:32.789Z,2.80
2024-02-19T07:02:05.825Z,2.55
2024-02-19T07:04:39.833Z,2.53
2024-02-19T07:07:12.868Z,2.35
2024-02-19T07:09:45.865Z,2.53
2024-02-19T07:12:15.589Z,3.25
2024-02-19T07:14:45.170Z,2.70
2024-02-19T07:17:14.795Z,2.50
2024-02-19T07:19:44.524Z,2.28
2024-02-19T07:22:14.323Z,2.35
2024-02-19T07:24:44.122Z,2.30
2024-02-19T07:27:13.771Z,2.00
2024-02-19T07:29:43.476Z,2.08
2024-02-19T07:32:13.169Z,2.42
2024-02-19T07:34:44.480Z,2.50
2024-02-19T07:37:14.372Z,2.20
2024-02-19T07:39:44.515Z,2.28
2024-02-19T07:42:14.202Z,4.32
2024-02-19T07:44:46.639Z,13.45
2024-02-19T07:47:16.438Z,7.90
2024-02-19T07:49:46.094Z,5.43
2024-02-19T07:52:15.780Z,5.10
2024-02-19T07:54:45.530Z,5.20
2024-02-19T07:57:15.221Z,4.82
2024-02-19T07:59:44.858Z,4.40
2024-02-19T08:02:14.700Z,4.13
2024-02-19T08:04:44.529Z,4.10
2024-02-19T08:07:14.269Z,3.42
2024-02-19T08:09:44.016Z,3.80
2024-02-19T08:12:13.710Z,3.83
2024-02-19T08:14:43.395Z,3.30
2024-02-19T08:17:13.046Z,3.40
2024-02-19T08:19:42.694Z,2.90
2024-02-19T08:22:12.436Z,3.42
2024-02-19T08:24:42.104Z,3.05
2024-02-19T08:27:11.748Z,2.95
2024-02-19T08:29:41.413Z,3.58
2024-02-19T08:32:11.144Z,3.40
2024-02-19T08:34:40.787Z,3.40
2024-02-19T08:37:10.491Z,3.83
2024-02-19T08:39:42.540Z,3.78
2024-02-19T08:42:12.485Z,3.65
2024-02-19T08:44:42.142Z,3.45
2024-02-19T08:47:12.105Z,3.80
2024-02-19T08:49:41.997Z,3.72
2024-02-19T08:52:11.957Z,3.80
2024-02-19T08:54:41.834Z,3.53
2024-02-19T08:57:11.469Z,3.55
2024-02-19T08:59:47.336Z,3.95
2024-02-19T09:02:17.381Z,3.50
2024-02-19T09:04:47.845Z,3.75
2024-02-19T09:07:17.758Z,3.92
2024-02-19T09:09:47.576Z,3.85
2024-02-19T09:12:17.289Z,3.80
2024-02-19T09:14:46.957Z,3.50
2024-02-19T09:17:17.692Z,3.83
2024-02-19T09:19:48.084Z,3.80
2024-02-19T09:22:18.130Z,3.28
2024-02-19T09:24:50.286Z,3.80
2024-02-19T09:27:20.008Z,3.70
2024-02-19T09:29:49.613Z,4.07
2024-02-19T09:32:19.250Z,3.40
2024-02-19T09:34:49.068Z,3.50
2024-02-19T09:37:18.845Z,3.83
2024-02-19T09:39:52.456Z,3.30
2024-02-19T09:42:22.646Z,3.83
2024-02-19T09:44:52.223Z,3.70
2024-02-19T09:47:22.841Z,3.70
2024-02-19T09:49:52.814Z,3.50
2024-02-19T09:52:29.324Z,3.78
2024-02-19T09:55:00.263Z,3.72
2024-02-19T09:57:30.845Z,3.88
2024-02-19T10:00:05.755Z,3.78
2024-02-19T10:02:34.719Z,4.38
2024-02-19T10:05:04.163Z,4.32
2024-02-19T10:07:35.222Z,4.32
2024-02-19T10:10:07.025Z,4.00
2024-02-19T10:12:36.702Z,4.20
2024-02-19T10:15:07.478Z,3.90
2024-02-19T10:17:37.527Z,4.25
2024-02-19T10:20:10.889Z,4.70
2024-02-19T10:22:40.548Z,4.60
2024-02-19T10:25:10.498Z,4.82
2024-02-19T10:27:41.196Z,5.32
2024-02-19T10:30:15.535Z,4.95
2024-02-19T10:32:45.605Z,5.38
2024-02-19T10:35:15.360Z,4.88
2024-02-19T10:37:45.236Z,5.28
2024-02-19T10:40:20.126Z,5.38
2024-02-19T10:42:53.172Z,5.40
2024-02-19T10:45:26.122Z,5.30
2024-02-19T10:47:58.817Z,5.20
2024-02-19T10:50:34.436Z,5.47
2024-02-19T10:55:42.214Z,5.55
2024-02-19T10:58:19.819Z,5.10
2024-02-19T11:00:49.524Z,5.57
2024-02-19T11:03:19.285Z,6.00
2024-02-19T11:05:49.457Z,5.75
2024-02-19T11:08:25.667Z,6.10
2024-02-19T11:10:57.933Z,5.95
2024-02-19T11:13:30.795Z,6.18
2024-02-19T11:16:02.871Z,5.78
2024-02-19T11:18:34.388Z,5.70
2024-02-19T11:21:07.830Z,5.97
2024-02-19T11:23:37.488Z,6.05
2024-02-19T11:26:08.081Z,5.32
2024-02-19T11:28:38.399Z,5.90
2024-02-19T11:31:08.526Z,6.35
2024-02-19T11:33:38.278Z,6.55
2024-02-19T11:36:08.117Z,5.93
2024-02-19T11:38:41.416Z,6.53
2024-02-19T11:41:14.272Z,6.07
2024-02-19T11:43:43.907Z,6.55
2024-02-19T11:46:14.715Z,6.28
2024-02-19T11:48:44.577Z,6.07
2024-02-19T11:51:14.273Z,6.03
2024-02-19T11:53:44.016Z,6.22
2024-02-19T11:56:13.712Z,7.00
2024-02-19T11:58:43.396Z,7.13
2024-02-19T12:01:13.307Z,6.35
2024-02-19T12:03:44.463Z,5.93
2024-02-19T12:06:14.117Z,6.53
2024-02-19T12:08:45.218Z,7.32
2024-02-19T12:11:15.096Z,6.78
2024-02-19T12:13:44.797Z,6.72
2024-02-19T12:16:14.507Z,7.53
2024-02-19T12:18:47.172Z,7.32
2024-02-19T12:21:17.612Z,7.18
2024-02-19T12:23:48.857Z,7.40
2024-02-19T12:26:18.527Z,7.47
2024-02-19T12:28:48.374Z,7.25
2024-02-19T12:31:18.779Z,7.57
2024-02-19T12:33:48.582Z,7.80
2024-02-19T12:36:18.338Z,7.47
2024-02-19T12:38:50.047Z,8.32
2024-02-19T12:41:19.969Z,7.63
2024-02-19T12:43:49.620Z,7.55
2024-02-19T12:46:19.313Z,8.18
2024-02-19T12:48:49.168Z,7.97
2024-02-19T12:51:18.933Z,7.93
2024-02-19T12:53:48.570Z,7.65
2024-02-19T12:56:18.285Z,7.68
2024-02-19T12:58:48.006Z,8.27
2024-02-19T13:01:24.458Z,7.68
2024-02-19T13:04:02.737Z,8.20
2024-02-19T13:06:32.887Z,8.48
2024-02-19T13:09:03.385Z,8.20
2024-02-19T13:11:33.077Z,7.85
2024-02-19T13:14:04.027Z,7.88
2024-02-19T13:16:34.104Z,7.95
2024-02-19T13:19:04.153Z,8.50
2024-02-19T13:21:33.942Z,7.75
2024-02-19T13:24:03.618Z,8.27
2024-02-19T13:26:33.420Z,7.22
2024-02-19T13:29:05.277Z,8.20
2024-02-19T13:31:35.130Z,7.93
2024-02-19T13:34:04.880Z,7.82
2024-02-19T13:36:34.612Z,7.85
2024-02-19T13:39:04.318Z,7.53
2024-02-19T13:41:33.973Z,8.23
2024-02-19T13:44:03.596Z,7.57
2024-02-19T13:46:35.973Z,7.97
2024-02-19T13:49:09.785Z,7.90
2024-02-19T13:51:39.543Z,8.10
2024-02-19T13:54:09.417Z,8.23
2024-02-19T13:56:39.077Z,8.88
2024-02-19T13:59:10.377Z,8.25
2024-02-19T14:01:42.494Z,8.05
2024-02-19T14:04:12.570Z,7.90
2024-02-19T14:06:42.456Z,8.38
2024-02-19T14:09:14.229Z,8.57
2024-02-19T14:11:44.164Z,8.32
2024-02-19T14:14:13.956Z,8.65
2024-02-19T14:16:43.622Z,8.05
2024-02-19T14:19:13.306Z,8.27
2024-02-19T14:21:42.963Z,8.35
2024-02-19T14:24:12.840Z,8.07
2024-02-19T14:26:42.456Z,8.07
2024-02-19T14:29:13.920Z,8.13
2024-02-19T14:31:43.598Z,9.00
2024-02-19T14:34:13.331Z,7.90
2024-02-19T14:36:43.237Z,8.43
2024-02-19T14:39:12.847Z,8.20
2024-02-19T14:41:42.462Z,8.48
2024-02-19T14:44:12.331Z,8.32
2024-02-19T14:46:51.091Z,8.63
2024-02-19T14:49:24.408Z,8.45
2024-02-19T14:51:54.238Z,9.13
2024-02-19T14:54:23.965Z,8.00
2024-02-19T14:56:56.369Z,8.30
2024-02-19T14:59:26.134Z,8.07
2024-02-19T15:01:55.980Z,8.90
2024-02-19T15:04:25.812Z,8.32
2024-02-19T15:06:57.737Z,8.50
2024-02-19T15:09:27.433Z,8.88
2024-02-19T15:11:57.000Z,8.40
2024-02-19T15:14:26.717Z,9.02
2024-02-19T15:16:56.332Z,8.32
2024-02-19T15:19:25.970Z,9.27
2024-02-19T15:21:55.721Z,8.68
2024-02-19T15:24:25.366Z,9.00
2024-02-19T15:26:55.151Z,9.35
2024-02-19T15:29:26.084Z,9.05
2024-02-19T15:31:56.143Z,9.35
2024-02-19T15:34:26.141Z,9.25
2024-02-19T15:36:56.033Z,9.18
2024-02-19T15:39:25.855Z,9.13
2024-02-19T15:41:56.082Z,9.25
2024-02-19T15:44:26.213Z,9.30
2024-02-19T15:46:56.000Z,9.10
2024-02-19T15:49:25.921Z,8.70
2024-02-19T15:51:55.681Z,9.00
2024-02-19T15:54:28.523Z,8.88
2024-02-19T15:56:58.126Z,9.60
2024-02-19T15:59:28.329Z,9.70
2024-02-19T16:02:00.685Z,9.57
2024-02-19T16:04:30.601Z,9.13
2024-02-19T16:07:00.541Z,9.73
2024-02-19T16:09:30.660Z,9.30
2024-02-19T16:12:00.485Z,9.43
2024-02-19T16:14:30.129Z,9.30
2024-02-19T16:16:59.816Z,8.80
2024-02-19T16:19:29.622Z,9.13
2024-02-19T16:21:59.453Z,9.02
2024-02-19T16:24:36.089Z,9.32
2024-02-19T16:27:08.752Z,9.30
2024-02-19T16:29:38.420Z,10.00
2024-02-19T16:32:08.251Z,9.60
2024-02-19T16:34:37.985Z,9.68
2024-02-19T16:37:07.845Z,8.80
2024-02-19T16:39:37.492Z,9.40
2024-02-19T16:42:09.142Z,9.18
2024-02-19T16:44:38.981Z,9.85
2024-02-19T16:47:08.606Z,9.80
2024-02-19T16:49:38.828Z,9.38
2024-02-19T16:52:08.830Z,9.50
2024-02-19T16:54:38.529Z,9.73
2024-02-19T16:57:08.205Z,8.85
2024-02-19T16:59:39.531Z,9.90
2024-02-19T17:02:09.233Z,9.48
2024-02-19T17:04:41.650Z,8.98
2024-02-19T17:07:11.492Z,9.82
2024-02-19T17:09:42.281Z,10.20
2024-02-19T17:12:11.886Z,9.85
2024-02-19T17:14:45.646Z,9.50
2024-02-19T17:17:15.365Z,9.52
2024-02-19T17:19:45.114Z,10.30
2024-02-19T17:22:14.796Z,9.23
2024-02-19T17:24:44.955Z,10.23
2024-02-19T17:27:14.606Z,10.05
2024-02-19T17:29:45.011Z,10.13
2024-02-19T17:32:18.133Z,9.45
2024-02-19T17:34:49.096Z,9.73
2024-02-19T17:37:19.885Z,9.48
2024-02-19T17:39:51.035Z,9.57
2024-02-19T17:42:21.988Z,9.50
2024-02-19T17:44:51.786Z,10.30
2024-02-19T17:47:21.424Z,10.20
2024-02-19T17:49:51.593Z,9.70
2024-02-19T17:52:21.328Z,10.30
2024-02-19T17:54:53.386Z,9.75
2024-02-19T17:57:23.002Z,9.35
2024-02-19T17:59:52.571Z,10.38
2024-02-19T18:02:25.201Z,8.95
2024-02-19T18:04:58.930Z,9.45
2024-02-19T18:07:29.932Z,9.27
2024-02-19T18:10:00.036Z,10.02
2024-02-19T18:12:29.721Z,9.63
2024-02-19T18:15:01.349Z,10.45
2024-02-19T18:17:31.423Z,9.82
2024-02-19T18:20:01.380Z,10.88
2024-02-19T18:22:32.618Z,10.43
2024-02-19T18:25:02.657Z,10.52
2024-02-19T18:27:32.330Z,10.35
2024-02-19T18:30:01.967Z,9.68
2024-02-19T18:32:31.539Z,10.23
2024-02-19T18:35:04.952Z,9.98
2024-02-19T18:37:34.991Z,10.82
2024-02-19T18:40:05.424Z,9.98
2024-02-19T18:42:35.511Z,10.23
2024-02-19T18:45:05.270Z,9.90
2024-02-19T18:47:34.904Z,10.57
2024-02-19T18:50:05.220Z,9.95
2024-02-19T18:52:34.921Z,9.57
2024-02-19T18:55:05.360Z,10.25
2024-02-19T18:57:35.069Z,10.02
2024-02-19T19:00:08.370Z,10.73
2024-02-19T19:02:41.235Z,10.00
2024-02-19T19:05:11.004Z,10.25
2024-02-19T19:07:40.758Z,9.75
2024-02-19T19:10:10.834Z,10.05
2024-02-19T19:12:40.521Z,10.32
2024-02-19T19:15:10.766Z,9.93
2024-02-19T19:17:40.540Z,9.50
2024-02-19T19:20:11.770Z,10.65
2024-02-19T19:22:41.616Z,10.48
2024-02-19T19:25:11.521Z,10.10
2024-02-19T19:27:41.301Z,10.27
2024-02-19T19:30:11.535Z,9.65
2024-02-19T19:32:41.975Z,9.60
2024-02-19T19:35:11.965Z,10.30
2024-02-19T19:37:41.744Z,10.00
2024-02-19T19:40:12.140Z,10.40
2024-02-19T19:42:46.244Z,10.02
2024-02-19T19:45:16.943Z,9.60
2024-02-19T19:47:46.652Z,9.93
2024-02-19T19:50:17.289Z,10.20
2024-02-19T19:52:47.016Z,10.45
2024-02-19T19:55:16.842Z,9.48
2024-02-19T19:57:53.301Z,9.55
2024-02-19T20:00:23.105Z,9.88
2024-02-19T20:02:52.936Z,10.18
2024-02-19T20:05:22.942Z,9.50
2024-02-19T20:07:52.731Z,9.95
2024-02-19T20:10:22.466Z,9.13
2024-02-19T20:12:52.359Z,9.23
2024-02-19T20:15:22.008Z,9.18
2024-02-19T20:17:51.683Z,9.18
2024-02-19T20:20:21.630Z,8.68
2024-02-19T20:22:51.288Z,8.23
2024-02-19T20:25:24.162Z,8.20
2024-02-19T20:27:54.215Z,7.47
2024-02-19T20:30:23.985Z,7.70
2024-02-19T20:32:54.334Z,7.82
2024-02-19T20:35:24.089Z,7.45
2024-02-19T20:37:53.697Z,7.90
2024-02-19T20:40:24.071Z,8.00
2024-02-19T20:43:01.005Z,7.65
2024-02-19T20:45:31.143Z,7.32
2024-02-19T20:48:00.953Z,7.22
2024-02-19T20:50:30.678Z,7.63
2024-02-19T20:53:00.592Z,7.60
2024-02-19T20:55:30.403Z,7.05
2024-02-19T20:58:00.135Z,6.97
2024-02-19T21:00:30.281Z,7.18
2024-02-19T21:02:59.978Z,7.68
2024-02-19T21:05:29.634Z,7.57
2024-02-19T21:07:59.466Z,7.72
2024-02-19T21:10:30.178Z,6.53
2024-02-19T21:13:01.220Z,6.53
2024-02-19T21:15:31.135Z,5.95
2024-02-19T21:18:08.922Z,6.00
2024-02-19T21:20:39.422Z,6.15
2024-02-19T21:23:09.188Z,5.72
2024-02-19T21:25:38.937Z,5.82
2024-02-19T21:28:10.443Z,5.75
2024-02-19T21:30:40.090Z,5.95
2024-02-19T21:33:09.771Z,5.75
2024-02-19T21:35:39.687Z,6.03
2024-02-19T21:38:09.328Z,5.30
2024-02-19T21:40:39.807Z,6.30
2024-02-19T21:43:10.194Z,5.80
2024-02-19T21:45:39.993Z,5.57
2024-02-19T21:48:10.285Z,5.75
2024-02-19T21:50:40.055Z,5.88
2024-02-19T21:53:09.637Z,6.00
2024-02-19T21:55:39.315Z,6.05
2024-02-19T21:58:09.082Z,6.05
2024-02-19T22:00:41.262Z,6.22
2024-02-19T22:03:10.966Z,6.38
2024-02-19T22:05:40.785Z,6.45
2024-02-19T22:08:10.578Z,5.95
2024-02-19T22:10:40.335Z,6.38
2024-02-19T22:13:10.428Z,6.10
2024-02-19T22:15:40.107Z,6.30
2024-02-19T22:18:09.880Z,6.05
2024-02-19T22:20:39.562Z,6.40
2024-02-19T22:23:09.515Z,6.50
2024-02-19T22:25:39.501Z,6.20
2024-02-19T22:28:09.629Z,5.93
2024-02-19T22:30:39.351Z,6.50
2024-02-19T22:33:09.015Z,6.35
2024-02-19T22:35:39.252Z,6.50
2024-02-19T22:38:09.098Z,5.82
2024-02-19T22:40:38.875Z,5.90
2024-02-19T22:43:12.084Z,6.40
2024-02-19T22:45:42.778Z,6.03
2024-02-19T22:48:12.644Z,6.05
2024-02-19T22:50:43.111Z,6.40
2024-02-19T22:53:13.951Z,6.18
2024-02-19T22:55:43.583Z,6.28
2024-02-19T22:58:20.130Z,6.15
2024-02-19T23:00:56.087Z,5.65
2024-02-19T23:03:25.768Z,6.30
2024-02-19T23:05:55.532Z,6.28
2024-02-19T23:08:25.178Z,6.13
2024-02-19T23:10:57.396Z,6.40
2024-02-19T23:13:27.173Z,5.95
2024-02-19T23:15:59.803Z,6.35
2024-02-19T23:18:29.617Z,6.43
2024-02-19T23:20:59.277Z,6.22
2024-02-19T23:23:29.365Z,6.50
2024-02-19T23:25:59.245Z,6.47
2024-02-19T23:28:29.164Z,6.53
2024-02-19T23:30:59.957Z,6.22
2024-02-19T23:33:29.883Z,6.35
2024-02-19T23:35:59.557Z,7.20
2024-02-19T23:38:29.360Z,7.03
2024-02-19T23:40:59.030Z,6.38
2024-02-19T23:43:29.183Z,6.50
2024-02-19T23:45:58.935Z,6.80
2024-02-19T23:48:28.862Z,6.90
2024-02-19T23:50:59.174Z,7.22
2024-02-19T23:53:29.861Z,6.60
2024-02-19T23:55:59.562Z,6.80
2024-02-19T23:58:29.287Z,6.78
